KLOR/LOR METAR and TAF weather

Enter ICAO airport designator
Station Type Date Time Source
KLOR METAR 2018/12/18 18:58 UTC NOAA

KLOR 181858Z AUTO 00000KT 9SM CLR 18/03 A3008 RMK AO2 SLP170 T01820028


Station Type Date Time Source
KLOR Decoded METAR 2018/12/18 18:58 UTC NOAA

Fort Rucker, Lowe Army Heliport, AL, United States (KLOR) 31-21-32N 085-44-54W 93M
Dec 18, 2018 - 01:58 PM EST / 2018.12.18 1858 UTC
Wind: Calm:0
Visibility: 9 mile(s):0
Sky conditions: clear
Temperature: 64.8 F (18.2 C)
Dew Point: 37.0 F (2.8 C)
Relative Humidity: 35%
Pressure (altimeter): 30.08 in. Hg (1018 hPa)
ob: KLOR 181858Z AUTO 00000KT 9SM CLR 18/03 A3008 RMK AO2 SLP170 T01820028
cycle: 19

Station Type Date Time Source
KLOR TAF UTC NOAA

Error!


Example: see airport list